Time;durP1;ratioP1;P1;durP2;ratioP2;P2;SDS_P1;SDS_P2;PMS_P1;PMS_P2;Temp;Humidity;BMP_temperature;BMP_pressure;BME280_temperature;BME280_humidity;BME280_pressure;Samples;Min_cycle;Max_cycle;Signal;HPM_P1;HPM_P2
2021/01/17 00:01:33;;;;;;;;;38.25;35.75;;;;;;;;5048363;28;8915;-72
2021/01/17 00:03:59;;;;;;;;;44.75;38.00;;;;;;;;5044177;28;8960;-71
2021/01/17 00:06:25;;;;;;;;;45.50;39.00;;;;;;;;5048208;28;9561;-70
2021/01/17 00:08:50;;;;;;;;;48.50;38.25;;;;;;;;5048551;28;8917;-72
2021/01/17 00:11:16;;;;;;;;;36.75;33.50;;;;;;;;5048920;28;8841;-70
2021/01/17 00:13:42;;;;;;;;;36.25;34.00;;;;;;;;5049122;28;8864;-70
2021/01/17 00:16:08;;;;;;;;;36.00;31.75;;;;;;;;5049210;28;8838;-70
2021/01/17 00:18:35;;;;;;;;;42.25;36.50;;;;;;;;5052987;28;8841;-71
2021/01/17 00:21:01;;;;;;;;;35.25;32.50;;;;;;;;5052515;28;8969;-70
2021/01/17 00:23:27;;;;;;;;;33.25;31.00;;;;;;;;5052736;28;8837;-71
2021/01/17 00:25:53;;;;;;;;;38.75;33.50;;;;;;;;5052393;28;9612;-71
2021/01/17 00:28:19;;;;;;;;;37.50;34.75;;;;;;;;5052634;28;8849;-71
2021/01/17 00:30:45;;;;;;;;;44.50;37.00;;;;;;;;5052700;28;9561;-72
2021/01/17 00:33:12;;;;;;;;;42.50;38.50;;;;;;;;5052343;28;8952;-69
2021/01/17 00:35:39;;;;;;;;;38.25;35.75;;;;;;;;5052558;28;8833;-70
2021/01/17 00:38:05;;;;;;;;;35.00;32.50;;;;;;;;5052050;28;9700;-71
2021/01/17 00:40:31;;;;;;;;;37.50;33.25;;;;;;;;5052501;28;8948;-71
2021/01/17 00:42:57;;;;;;;;;44.50;39.50;;;;;;;;5052156;28;8909;-71
2021/01/17 00:45:24;;;;;;;;;40.00;38.00;;;;;;;;5052584;28;8961;-70
2021/01/17 00:47:50;;;;;;;;;36.50;34.25;;;;;;;;5052145;28;8849;-69
2021/01/17 00:50:17;;;;;;;;;35.25;31.75;;;;;;;;5051730;28;8834;-70
2021/01/17 00:52:44;;;;;;;;;35.75;35.75;;;;;;;;5052169;28;8983;-70
2021/01/17 00:55:10;;;;;;;;;39.00;39.00;;;;;;;;5052022;28;8837;-70
2021/01/17 00:57:36;;;;;;;;;38.50;31.50;;;;;;;;5051988;28;8958;-69
2021/01/17 01:00:03;;;;;;;;;34.25;32.25;;;;;;;;5051927;28;8806;-70
2021/01/17 01:02:29;;;;;;;;;45.25;39.50;;;;;;;;5048149;28;8834;-70
2021/01/17 01:04:55;;;;;;;;;49.00;41.00;;;;;;;;5051721;28;8991;-70
2021/01/17 01:07:21;;;;;;;;;42.25;39.00;;;;;;;;5052162;28;8857;-69
2021/01/17 01:09:48;;;;;;;;;45.75;38.75;;;;;;;;5051435;28;9599;-70
2021/01/17 01:12:14;;;;;;;;;40.00;37.00;;;;;;;;5052018;28;8861;-71
2021/01/17 01:14:40;;;;;;;;;40.00;38.25;;;;;;;;5051896;28;8968;-70
2021/01/17 01:17:06;;;;;;;;;45.25;41.75;;;;;;;;5051737;28;8850;-70
2021/01/17 01:19:32;;;;;;;;;52.25;44.00;;;;;;;;5051853;28;8888;-70
2021/01/17 01:22:00;;;;;;;;;54.00;45.25;;;;;;;;5047369;28;8838;-70
2021/01/17 01:24:26;;;;;;;;;49.00;42.50;;;;;;;;5051463;28;9541;-70
2021/01/17 01:26:53;;;;;;;;;44.25;41.00;;;;;;;;5051552;28;8876;-70
2021/01/17 01:29:19;;;;;;;;;41.50;38.25;;;;;;;;5051379;28;8976;-71
2021/01/17 01:31:45;;;;;;;;;61.00;47.75;;;;;;;;5051296;28;8849;-70
2021/01/17 01:34:11;;;;;;;;;55.25;41.25;;;;;;;;5050932;28;8865;-70
2021/01/17 01:36:38;;;;;;;;;55.75;41.00;;;;;;;;5051314;28;8849;-69
2021/01/17 01:39:04;;;;;;;;;66.25;51.75;;;;;;;;5050966;28;8930;-69
2021/01/17 01:41:31;;;;;;;;;62.00;48.00;;;;;;;;5051526;28;8957;-70
2021/01/17 01:43:58;;;;;;;;;61.75;49.75;;;;;;;;5047142;28;8960;-70
2021/01/17 01:46:25;;;;;;;;;61.25;48.50;;;;;;;;5051086;28;8955;-69
2021/01/17 01:48:52;;;;;;;;;72.25;55.00;;;;;;;;5051325;28;8968;-70
2021/01/17 01:51:19;;;;;;;;;60.75;48.25;;;;;;;;5050745;28;8964;-70
2021/01/17 01:53:45;;;;;;;;;59.25;51.75;;;;;;;;5050749;28;9014;-70
2021/01/17 01:56:13;;;;;;;;;69.50;56.25;;;;;;;;5050699;28;8850;-70
2021/01/17 01:58:39;;;;;;;;;72.00;55.50;;;;;;;;5047087;28;8972;-71
2021/01/17 02:01:06;;;;;;;;;73.00;56.50;;;;;;;;5050649;28;8986;-70
2021/01/17 02:03:32;;;;;;;;;68.25;56.75;;;;;;;;5050959;28;8826;-70
2021/01/17 02:05:58;;;;;;;;;70.00;56.50;;;;;;;;5050626;28;8944;-70
2021/01/17 02:08:39;;;;;;;;;72.50;59.00;;;;;;;;5050712;28;8942;-70
2021/01/17 02:11:08;;;;;;;;;80.25;60.25;;;;;;;;5047469;28;8856;-72
2021/01/17 02:13:37;;;;;;;;;80.50;61.50;;;;;;;;5050606;28;8877;-71
2021/01/17 02:16:04;;;;;;;;;74.25;58.50;;;;;;;;5050164;28;8976;-70
2021/01/17 02:18:34;;;;;;;;;73.50;60.50;;;;;;;;5050828;28;9062;-70
2021/01/17 02:21:02;;;;;;;;;72.50;60.25;;;;;;;;5046645;28;9832;-70
2021/01/17 02:23:34;;;;;;;;;77.25;61.00;;;;;;;;5046886;28;8830;-70
2021/01/17 02:26:00;;;;;;;;;81.75;61.50;;;;;;;;5046628;28;8950;-70
2021/01/17 02:28:26;;;;;;;;;83.00;63.75;;;;;;;;5046435;28;9611;-70
2021/01/17 02:30:53;;;;;;;;;84.00;63.25;;;;;;;;5050243;28;8841;-70
2021/01/17 02:33:21;;;;;;;;;81.75;60.75;;;;;;;;5050222;28;8964;-70
2021/01/17 02:35:48;;;;;;;;;76.00;58.00;;;;;;;;5050224;28;9769;-71
2021/01/17 02:38:28;;;;;;;;;64.00;50.25;;;;;;;;5050328;28;9030;-69
2021/01/17 02:40:56;;;;;;;;;68.00;56.25;;;;;;;;5048449;28;8834;-71
2021/01/17 02:43:23;;;;;;;;;71.25;56.75;;;;;;;;5050411;28;8867;-70
2021/01/17 02:45:49;;;;;;;;;70.75;58.50;;;;;;;;5050285;28;8952;-69
2021/01/17 02:48:15;;;;;;;;;66.00;54.25;;;;;;;;5049902;28;8865;-70
2021/01/17 02:50:41;;;;;;;;;69.75;57.00;;;;;;;;5049865;28;8956;-69
2021/01/17 02:53:10;;;;;;;;;65.75;52.00;;;;;;;;5049894;28;8853;-69
2021/01/17 02:55:37;;;;;;;;;69.00;56.25;;;;;;;;5049828;28;8833;-69
2021/01/17 02:58:05;;;;;;;;;68.00;53.50;;;;;;;;5049770;28;8842;-70
2021/01/17 03:00:33;;;;;;;;;70.25;56.75;;;;;;;;5049863;28;8842;-70
2021/01/17 03:03:00;;;;;;;;;70.50;56.00;;;;;;;;5046264;28;8822;-70
2021/01/17 03:05:27;;;;;;;;;60.25;49.75;;;;;;;;5045882;28;8845;-70
2021/01/17 03:07:54;;;;;;;;;68.75;55.25;;;;;;;;5049884;28;8840;-70
2021/01/17 03:10:20;;;;;;;;;68.75;55.75;;;;;;;;5049522;28;8995;-70
2021/01/17 03:12:47;;;;;;;;;69.75;53.75;;;;;;;;5049990;28;8841;-70
2021/01/17 03:15:14;;;;;;;;;62.50;50.25;;;;;;;;5049578;28;8980;-70
2021/01/17 03:17:41;;;;;;;;;68.50;57.50;;;;;;;;5049788;28;8969;-71
2021/01/17 03:20:08;;;;;;;;;70.75;56.75;;;;;;;;5049440;28;9663;-70
2021/01/17 03:22:34;;;;;;;;;67.25;54.75;;;;;;;;5049593;28;8972;-70
2021/01/17 03:25:00;;;;;;;;;70.75;56.75;;;;;;;;5049408;28;9052;-70
2021/01/17 03:27:26;;;;;;;;;70.00;54.75;;;;;;;;5045880;28;8861;-70
2021/01/17 03:29:52;;;;;;;;;69.50;55.25;;;;;;;;5049545;28;9674;-70
2021/01/17 03:32:20;;;;;;;;;74.50;57.25;;;;;;;;5049392;28;8872;-69
2021/01/17 03:34:48;;;;;;;;;75.00;59.75;;;;;;;;5049419;28;8960;-69
2021/01/17 03:37:15;;;;;;;;;73.75;58.00;;;;;;;;5049064;28;8995;-70
2021/01/17 03:39:40;;;;;;;;;68.75;55.00;;;;;;;;5049260;28;9685;-69
2021/01/17 03:42:06;;;;;;;;;72.75;56.00;;;;;;;;5049100;28;8911;-70
2021/01/17 03:44:32;;;;;;;;;69.00;54.25;;;;;;;;5048613;28;8964;-70
2021/01/17 03:46:58;;;;;;;;;49.75;45.00;;;;;;;;5047063;28;8869;-69
2021/01/17 03:49:24;;;;;;;;;62.25;52.00;;;;;;;;5046824;28;9590;-69
2021/01/17 03:51:51;;;;;;;;;60.50;46.50;;;;;;;;5048658;28;9074;-70
2021/01/17 03:54:17;;;;;;;;;64.75;49.75;;;;;;;;5050834;28;8874;-70
2021/01/17 03:56:43;;;;;;;;;64.00;50.25;;;;;;;;5050918;28;8984;-69
2021/01/17 03:59:09;;;;;;;;;59.50;49.50;;;;;;;;5051907;28;8864;-69
2021/01/17 04:01:34;;;;;;;;;63.00;51.75;;;;;;;;5053065;28;8853;-70
2021/01/17 04:04:00;;;;;;;;;68.25;53.00;;;;;;;;5052677;28;8849;-70
2021/01/17 04:06:26;;;;;;;;;65.50;52.75;;;;;;;;5052704;28;8944;-70
2021/01/17 04:08:53;;;;;;;;;58.00;46.00;;;;;;;;5052505;28;8830;-69
2021/01/17 04:11:19;;;;;;;;;62.25;52.00;;;;;;;;5052964;28;8857;-69
2021/01/17 04:13:45;;;;;;;;;59.00;49.50;;;;;;;;5052696;28;8849;-69
2021/01/17 04:16:11;;;;;;;;;62.00;49.75;;;;;;;;5052484;28;8846;-69
2021/01/17 04:18:37;;;;;;;;;61.75;49.00;;;;;;;;5052638;28;9550;-71
2021/01/17 04:21:03;;;;;;;;;62.50;49.25;;;;;;;;5052349;28;8829;-70
2021/01/17 04:23:29;;;;;;;;;58.25;47.75;;;;;;;;5052639;28;8960;-69
2021/01/17 04:25:56;;;;;;;;;63.50;49.75;;;;;;;;5048328;28;8852;-71
2021/01/17 04:28:22;;;;;;;;;66.25;52.50;;;;;;;;5052463;28;8998;-70
2021/01/17 04:30:48;;;;;;;;;53.75;45.50;;;;;;;;5052156;28;8877;-70
2021/01/17 04:33:17;;;;;;;;;57.50;47.50;;;;;;;;5052297;28;9024;-70
2021/01/17 04:35:43;;;;;;;;;61.00;51.75;;;;;;;;5052081;28;9023;-71
2021/01/17 04:38:09;;;;;;;;;61.25;47.75;;;;;;;;5051912;28;8870;-70
2021/01/17 04:40:35;;;;;;;;;57.25;46.00;;;;;;;;5052265;28;8829;-71
2021/01/17 04:43:05;;;;;;;;;63.75;52.75;;;;;;;;5052250;28;9034;-69
2021/01/17 04:45:32;;;;;;;;;66.25;54.25;;;;;;;;5052068;28;8962;-70
2021/01/17 04:47:58;;;;;;;;;65.25;54.00;;;;;;;;5052236;28;8972;-69
2021/01/17 04:50:27;;;;;;;;;64.00;53.00;;;;;;;;5047965;28;8847;-69
2021/01/17 04:52:58;;;;;;;;;66.75;54.50;;;;;;;;5051968;28;8948;-70
2021/01/17 04:55:25;;;;;;;;;63.50;53.00;;;;;;;;5048106;28;8840;-70
2021/01/17 04:57:51;;;;;;;;;63.00;52.75;;;;;;;;5052025;28;8848;-70
2021/01/17 05:00:22;;;;;;;;;67.75;53.00;;;;;;;;5051983;28;8884;-69
2021/01/17 05:02:56;;;;;;;;;67.25;55.75;;;;;;;;5051607;28;8962;-69
2021/01/17 05:05:22;;;;;;;;;60.00;49.00;;;;;;;;5051516;28;8825;-69
2021/01/17 05:07:50;;;;;;;;;65.00;46.75;;;;;;;;5051388;28;8992;-69
2021/01/17 05:10:23;;;;;;;;;64.25;51.50;;;;;;;;5051125;28;8858;-69
2021/01/17 05:12:51;;;;;;;;;63.75;50.25;;;;;;;;5051790;28;8858;-70
2021/01/17 05:15:19;;;;;;;;;63.25;50.75;;;;;;;;5051150;28;8992;-70
2021/01/17 05:17:46;;;;;;;;;56.50;46.25;;;;;;;;5051381;28;8960;-70
2021/01/17 05:20:13;;;;;;;;;63.00;52.50;;;;;;;;5051109;28;8849;-71
2021/01/17 05:22:39;;;;;;;;;65.25;52.75;;;;;;;;5051520;28;9570;-69
2021/01/17 05:25:06;;;;;;;;;64.00;50.00;;;;;;;;5051121;28;8842;-69
2021/01/17 05:27:32;;;;;;;;;57.75;49.25;;;;;;;;5051251;28;8946;-70
2021/01/17 05:29:58;;;;;;;;;60.75;49.50;;;;;;;;5050794;28;9026;-70
2021/01/17 05:32:25;;;;;;;;;57.75;50.00;;;;;;;;5047504;28;8854;-69
2021/01/17 05:34:52;;;;;;;;;59.75;48.75;;;;;;;;5051290;28;8948;-69
2021/01/17 05:37:18;;;;;;;;;58.50;49.25;;;;;;;;5050936;28;8989;-69
2021/01/17 05:40:00;;;;;;;;;53.25;46.25;;;;;;;;5051070;28;8960;-70
2021/01/17 05:42:27;;;;;;;;;53.25;46.50;;;;;;;;5047378;28;8984;-69
2021/01/17 05:44:54;;;;;;;;;57.25;47.75;;;;;;;;5046519;28;8826;-69
2021/01/17 05:47:21;;;;;;;;;64.25;49.75;;;;;;;;5050895;28;8971;-70
2021/01/17 05:49:47;;;;;;;;;57.50;48.00;;;;;;;;5050835;28;8958;-69
2021/01/17 05:52:15;;;;;;;;;58.00;48.75;;;;;;;;5050562;28;8938;-68
2021/01/17 05:54:42;;;;;;;;;54.50;45.50;;;;;;;;5050802;28;8829;-70
2021/01/17 05:57:14;;;;;;;;;55.25;48.50;;;;;;;;5050461;28;8809;-70
2021/01/17 05:59:41;;;;;;;;;56.00;48.50;;;;;;;;5050719;28;8880;-70
2021/01/17 06:02:17;;;;;;;;;58.50;47.75;;;;;;;;5050460;28;8857;-70
2021/01/17 06:04:43;;;;;;;;;55.50;49.25;;;;;;;;5050414;28;9688;-69
2021/01/17 06:07:10;;;;;;;;;50.50;46.25;;;;;;;;5050550;28;8977;-70
2021/01/17 06:09:37;;;;;;;;;48.00;45.00;;;;;;;;5050268;28;9091;-70
2021/01/17 06:12:03;;;;;;;;;26.75;25.50;;;;;;;;5050072;28;8914;-69
2021/01/17 06:14:30;;;;;;;;;59.50;47.00;;;;;;;;5049887;28;8956;-70
2021/01/17 06:16:57;;;;;;;;;60.75;47.50;;;;;;;;5050263;28;8845;-71
2021/01/17 06:19:30;;;;;;;;;61.50;50.25;;;;;;;;5046673;28;8821;-70
2021/01/17 06:21:58;;;;;;;;;57.50;49.75;;;;;;;;5046559;28;9045;-71
2021/01/17 06:24:32;;;;;;;;;55.75;47.00;;;;;;;;5046438;28;8932;-70
2021/01/17 06:27:01;;;;;;;;;64.75;47.75;;;;;;;;5046772;28;8851;-70
2021/01/17 06:29:34;;;;;;;;;60.75;45.50;;;;;;;;5050255;28;8821;-70
2021/01/17 06:32:07;;;;;;;;;60.75;49.75;;;;;;;;5046868;28;9664;-70
2021/01/17 06:34:33;;;;;;;;;52.25;42.00;;;;;;;;5050206;28;9131;-71
2021/01/17 06:37:05;;;;;;;;;50.25;44.00;;;;;;;;5049780;28;8992;-70
2021/01/17 06:39:30;;;;;;;;;62.75;49.00;;;;;;;;5049704;28;8864;-69
2021/01/17 06:41:57;;;;;;;;;59.50;46.25;;;;;;;;5049997;28;8845;-70
2021/01/17 06:44:28;;;;;;;;;59.50;47.75;;;;;;;;5049902;28;8984;-72
2021/01/17 06:46:54;;;;;;;;;54.50;46.00;;;;;;;;5045680;28;8814;-70
2021/01/17 06:49:21;;;;;;;;;59.50;46.25;;;;;;;;5049914;28;8956;-71
2021/01/17 06:51:48;;;;;;;;;57.75;48.25;;;;;;;;5049953;28;8903;-71
2021/01/17 06:54:15;;;;;;;;;56.50;46.00;;;;;;;;5049196;28;8849;-71
2021/01/17 06:56:43;;;;;;;;;59.75;49.25;;;;;;;;5049369;28;8960;-71
2021/01/17 06:59:09;;;;;;;;;60.75;48.75;;;;;;;;5048915;28;8982;-69
2021/01/17 07:01:41;;;;;;;;;54.50;46.00;;;;;;;;5049285;28;8830;-68
2021/01/17 07:04:15;;;;;;;;;60.50;46.25;;;;;;;;5048568;28;9601;-75
2021/01/17 07:06:52;;;;;;;;;50.50;44.50;;;;;;;;5049884;28;8960;-68
2021/01/17 07:09:20;;;;;;;;;54.25;42.50;;;;;;;;5049656;28;8891;-66
2021/01/17 07:11:53;;;;;;;;;53.50;46.00;;;;;;;;5049516;28;8826;-66
2021/01/17 07:14:25;;;;;;;;;56.25;48.00;;;;;;;;5049422;28;8865;-65
2021/01/17 07:16:55;;;;;;;;;40.25;36.75;;;;;;;;5049874;28;8963;-66
2021/01/17 07:19:28;;;;;;;;;55.50;46.50;;;;;;;;5049621;28;8825;-66
2021/01/17 07:21:55;;;;;;;;;52.25;47.50;;;;;;;;5048850;28;8950;-67
2021/01/17 07:24:26;;;;;;;;;62.00;48.00;;;;;;;;5049916;28;8964;-68
2021/01/17 07:27:02;;;;;;;;;43.75;36.50;;;;;;;;5052708;28;8821;-66
2021/01/17 07:29:28;;;;;;;;;53.50;46.75;;;;;;;;5053273;28;8845;-66
2021/01/17 07:31:56;;;;;;;;;63.00;49.00;;;;;;;;5053090;28;8980;-66
2021/01/17 07:34:22;;;;;;;;;66.25;52.25;;;;;;;;5053253;28;8864;-66
2021/01/17 07:36:49;;;;;;;;;35.50;32.00;;;;;;;;5053250;28;8972;-66
2021/01/17 07:39:18;;;;;;;;;41.25;38.00;;;;;;;;5053325;28;9045;-66
2021/01/17 07:41:47;;;;;;;;;48.50;42.75;;;;;;;;5053401;28;8881;-67
2021/01/17 07:44:15;;;;;;;;;48.00;41.25;;;;;;;;5053579;28;8992;-67
2021/01/17 07:46:41;;;;;;;;;41.75;39.25;;;;;;;;5052807;28;8849;-66
2021/01/17 07:49:11;;;;;;;;;38.50;38.25;;;;;;;;5053195;28;8972;-75
2021/01/17 07:51:38;;;;;;;;;34.00;33.00;;;;;;;;5051719;28;8855;-67
2021/01/17 07:54:09;;;;;;;;;38.25;37.25;;;;;;;;5052004;28;8862;-68
2021/01/17 07:56:37;;;;;;;;;36.00;30.75;;;;;;;;5048944;28;8883;-68
2021/01/17 07:59:04;;;;;;;;;31.25;29.00;;;;;;;;5052730;28;8958;-68
2021/01/17 08:01:42;;;;;;;;;32.75;26.25;;;;;;;;5051743;28;8984;-69
2021/01/17 08:04:25;;;;;;;;;27.50;25.00;;;;;;;;5051095;28;8848;-69
2021/01/17 08:06:54;;;;;;;;;28.75;26.75;;;;;;;;5050412;28;8968;-68
2021/01/17 08:09:40;;;;;;;;;36.50;26.00;;;;;;;;5049903;28;8825;-68
2021/01/17 08:12:06;;;;;;;;;22.75;20.00;;;;;;;;5049060;28;8840;-70
2021/01/17 08:14:32;;;;;;;;;18.25;16.00;;;;;;;;5050649;28;8922;-68
2021/01/17 08:17:02;;;;;;;;;20.00;19.00;;;;;;;;5051050;28;8841;-68
2021/01/17 08:19:39;;;;;;;;;10.00;10.00;;;;;;;;5050606;28;9003;-71
2021/01/17 08:22:19;;;;;;;;;13.33;12.67;;;;;;;;5051186;28;8984;-70
2021/01/17 08:24:45;;;;;;;;;15.00;13.33;;;;;;;;5046092;28;8837;-66
2021/01/17 08:27:28;;;;;;;;;10.00;8.00;;;;;;;;5051197;28;8980;-66
2021/01/17 08:30:17;;;;;;;;;9.33;7.33;;;;;;;;5047172;28;8835;-69
2021/01/17 08:32:44;;;;;;;;;12.33;12.33;;;;;;;;5049188;28;8829;-66
2021/01/17 08:35:29;;;;;;;;;40.50;37.00;;;;;;;;5050281;28;8856;-69
2021/01/17 08:37:57;;;;;;;;;51.75;43.00;;;;;;;;5047209;28;8830;-68
2021/01/17 08:40:37;;;;;;;;;58.25;48.25;;;;;;;;5047746;28;8948;-69
2021/01/17 08:43:04;;;;;;;;;64.00;51.00;;;;;;;;5049449;28;9720;-68
2021/01/17 08:45:33;;;;;;;;;66.25;53.00;;;;;;;;5051794;28;8833;-67
2021/01/17 08:48:00;;;;;;;;;57.25;48.00;;;;;;;;5052112;28;8834;-69
2021/01/17 08:50:27;;;;;;;;;64.00;48.25;;;;;;;;5050890;28;8868;-68
2021/01/17 08:53:05;;;;;;;;;63.75;48.75;;;;;;;;5048156;28;8822;-67
2021/01/17 08:55:37;;;;;;;;;61.00;50.50;;;;;;;;5048931;28;8845;-67
2021/01/17 08:58:03;;;;;;;;;59.75;50.00;;;;;;;;5052187;28;9712;-68
2021/01/17 16:29:17;;;;;;;;;57.25;46.25;;;;;;;;5110870;27;13473;-74
2021/01/17 16:31:50;;;;;;;;;51.33;43.67;;;;;;;;5098896;28;8975;-76
2021/01/17 16:34:16;;;;;;;;;63.00;50.75;;;;;;;;5098238;28;8831;-76
2021/01/17 16:36:42;;;;;;;;;64.25;51.00;;;;;;;;5094839;28;8893;-77
2021/01/17 16:39:08;;;;;;;;;63.00;50.00;;;;;;;;5097189;28;8834;-79
2021/01/17 16:41:34;;;;;;;;;62.00;49.75;;;;;;;;5096137;28;8852;-80
2021/01/17 16:43:59;;;;;;;;;62.00;48.75;;;;;;;;5097038;28;8856;-79
2021/01/17 16:46:28;;;;;;;;;47.33;42.33;;;;;;;;5095782;28;8835;-77
2021/01/17 16:48:54;;;;;;;;;43.00;40.33;;;;;;;;5097597;28;8967;-74
2021/01/17 16:51:20;;;;;;;;;42.33;35.67;;;;;;;;5095084;28;8912;-75
2021/01/17 16:53:46;;;;;;;;;36.67;29.00;;;;;;;;5098405;28;8858;-76
2021/01/17 16:56:14;;;;;;;;;30.33;29.33;;;;;;;;5096197;28;8885;-79
2021/01/17 16:58:40;;;;;;;;;34.67;28.00;;;;;;;;5096634;28;8945;-77
2021/01/17 17:01:06;;;;;;;;;33.00;29.33;;;;;;;;5095317;28;8842;-73
2021/01/17 17:03:33;;;;;;;;;26.67;25.33;;;;;;;;5095497;28;9267;-79
2021/01/17 17:06:03;;;;;;;;;32.00;26.33;;;;;;;;5096710;28;9671;-71
2021/01/17 17:08:29;;;;;;;;;27.67;24.00;;;;;;;;5095575;28;8953;-71
2021/01/17 17:10:55;;;;;;;;;32.67;24.33;;;;;;;;5097644;28;8839;-72
2021/01/17 17:13:21;;;;;;;;;23.67;23.33;;;;;;;;5094791;28;8933;-77
2021/01/17 17:15:47;;;;;;;;;23.67;23.00;;;;;;;;5097399;28;8867;-77
2021/01/17 17:18:13;;;;;;;;;24.33;19.00;;;;;;;;5095570;28;9610;-75
2021/01/17 17:20:40;;;;;;;;;28.00;24.00;;;;;;;;5099558;28;9568;-76
2021/01/17 17:23:06;;;;;;;;;28.33;25.00;;;;;;;;5098729;28;8855;-75
2021/01/17 17:25:32;;;;;;;;;30.00;26.33;;;;;;;;5100653;28;8898;-76
2021/01/17 17:27:58;;;;;;;;;26.33;26.00;;;;;;;;5100157;28;9659;-75
2021/01/17 17:30:24;;;;;;;;;30.67;28.00;;;;;;;;5099388;28;8837;-76
2021/01/17 17:32:50;;;;;;;;;34.33;28.00;;;;;;;;5096668;28;8860;-75
2021/01/17 17:35:16;;;;;;;;;30.67;25.00;;;;;;;;5097160;28;8945;-77
2021/01/17 17:37:43;;;;;;;;;34.67;28.00;;;;;;;;5099673;28;8878;-79
2021/01/17 17:40:09;;;;;;;;;33.00;29.33;;;;;;;;5085930;28;8893;-79
2021/01/17 17:42:35;;;;;;;;;37.00;32.00;;;;;;;;5084104;28;8848;-80
2021/01/17 17:45:01;;;;;;;;;41.33;35.00;;;;;;;;5090682;28;8832;-78
2021/01/17 17:47:27;;;;;;;;;34.00;29.33;;;;;;;;5087704;28;8905;-73
2021/01/17 17:49:54;;;;;;;;;33.67;33.00;;;;;;;;5088796;28;8942;-76
2021/01/17 17:52:22;;;;;;;;;33.67;30.00;;;;;;;;5083714;28;8828;-72
2021/01/17 17:54:48;;;;;;;;;37.33;32.67;;;;;;;;5084180;28;8840;-76
2021/01/17 17:57:14;;;;;;;;;36.00;30.33;;;;;;;;5085683;28;8855;-80
2021/01/17 17:59:40;;;;;;;;;37.00;33.67;;;;;;;;5084366;28;8854;-80
2021/01/17 18:02:06;;;;;;;;;35.00;29.00;;;;;;;;5086928;28;8925;-77
2021/01/17 18:04:32;;;;;;;;;35.33;33.33;;;;;;;;5078241;28;8851;-76
2021/01/17 18:06:58;;;;;;;;;42.00;37.33;;;;;;;;5085771;28;8859;-77
2021/01/17 18:09:24;;;;;;;;;48.00;40.67;;;;;;;;5081984;28;9037;-77
2021/01/17 18:11:55;;;;;;;;;43.33;38.00;;;;;;;;5086754;28;8864;-78
2021/01/17 18:14:21;;;;;;;;;39.67;37.67;;;;;;;;5083286;28;8840;-77
2021/01/17 18:16:51;;;;;;;;;48.25;43.00;;;;;;;;5082055;28;9568;-75
2021/01/17 18:19:17;;;;;;;;;50.33;42.33;;;;;;;;5081268;28;8883;-74
2021/01/17 18:21:43;;;;;;;;;54.75;43.50;;;;;;;;5082376;28;8929;-75
2021/01/17 18:24:09;;;;;;;;;51.00;40.75;;;;;;;;5078116;28;8872;-76
2021/01/17 18:26:37;;;;;;;;;47.00;41.00;;;;;;;;5079767;28;8924;-74
2021/01/17 18:29:04;;;;;;;;;59.00;49.25;;;;;;;;5078864;28;8886;-74
2021/01/17 18:31:30;;;;;;;;;80.50;60.75;;;;;;;;5078683;28;8843;-73
2021/01/17 18:33:56;;;;;;;;;76.25;59.50;;;;;;;;5079925;28;8970;-74
2021/01/17 18:36:22;;;;;;;;;77.00;62.25;;;;;;;;5077412;28;9626;-79
2021/01/17 18:38:48;;;;;;;;;77.50;60.25;;;;;;;;5080466;28;8955;-80
2021/01/17 18:41:14;;;;;;;;;74.00;57.50;;;;;;;;5077837;28;8872;-78
2021/01/17 18:43:40;;;;;;;;;73.00;56.75;;;;;;;;5079547;28;8969;-77
2021/01/17 18:46:06;;;;;;;;;71.25;58.00;;;;;;;;5078014;28;8856;-76
2021/01/17 18:48:32;;;;;;;;;74.25;57.00;;;;;;;;5082262;28;8971;-76
2021/01/17 18:50:58;;;;;;;;;70.00;56.00;;;;;;;;5084004;28;8865;-79
2021/01/17 18:53:24;;;;;;;;;74.00;56.50;;;;;;;;5082915;28;8883;-76
2021/01/17 18:55:50;;;;;;;;;64.75;54.50;;;;;;;;5084546;28;8850;-77
2021/01/17 18:58:16;;;;;;;;;69.00;56.00;;;;;;;;5083499;28;8908;-76
2021/01/17 19:00:42;;;;;;;;;38.75;38.00;;;;;;;;5086177;28;8990;-77
2021/01/17 19:03:09;;;;;;;;;30.67;24.33;;;;;;;;5085192;28;9599;-78
2021/01/17 19:05:35;;;;;;;;;24.67;20.00;;;;;;;;5084663;28;9039;-76
2021/01/17 19:08:02;;;;;;;;;22.00;20.00;;;;;;;;5081863;28;8848;-76
2021/01/17 19:10:28;;;;;;;;;26.00;23.67;;;;;;;;5085280;28;9076;-75
2021/01/17 19:12:54;;;;;;;;;29.00;27.00;;;;;;;;5085275;28;8970;-76
2021/01/17 19:15:20;;;;;;;;;28.00;23.67;;;;;;;;5084723;28;8874;-76
2021/01/17 19:17:48;;;;;;;;;20.33;20.33;;;;;;;;5085220;28;8840;-75
2021/01/17 19:20:15;;;;;;;;;25.33;25.33;;;;;;;;5080206;28;9690;-76
2021/01/17 19:22:43;;;;;;;;;20.33;19.33;;;;;;;;5085001;28;8971;-76
2021/01/17 19:25:10;;;;;;;;;28.67;23.67;;;;;;;;5081612;28;8847;-76
2021/01/17 19:27:36;;;;;;;;;26.33;24.67;;;;;;;;5080899;28;8853;-76
2021/01/17 19:30:04;;;;;;;;;28.00;24.00;;;;;;;;5084480;28;9584;-76
2021/01/17 19:32:30;;;;;;;;;29.67;24.67;;;;;;;;5080453;28;8934;-77
2021/01/17 19:34:56;;;;;;;;;26.67;21.33;;;;;;;;5081890;28;8851;-80
2021/01/17 19:37:23;;;;;;;;;27.33;24.33;;;;;;;;5077076;28;8851;-73
2021/01/17 19:39:52;;;;;;;;;23.67;22.00;;;;;;;;5080781;28;8832;-73
2021/01/17 19:42:18;;;;;;;;;19.00;16.00;;;;;;;;5076508;28;8856;-74
2021/01/17 19:44:43;;;;;;;;;22.67;20.67;;;;;;;;5080276;28;9590;-73
2021/01/17 19:47:10;;;;;;;;;22.33;20.00;;;;;;;;5077980;28;8860;-72
2021/01/17 19:49:36;;;;;;;;;22.00;19.00;;;;;;;;5079874;28;8824;-80
2021/01/17 19:52:02;;;;;;;;;29.00;23.00;;;;;;;;5080547;28;8950;-79
2021/01/17 19:54:29;;;;;;;;;20.67;18.33;;;;;;;;5076823;28;8983;-78
2021/01/17 19:56:55;;;;;;;;;20.00;19.00;;;;;;;;5081801;28;8942;-84
2021/01/17 19:59:21;;;;;;;;;19.33;18.33;;;;;;;;5076448;28;8858;-82
2021/01/17 20:01:47;;;;;;;;;20.67;17.33;;;;;;;;5079802;28;8898;-82
2021/01/17 20:04:13;;;;;;;;;18.33;15.00;;;;;;;;5078015;28;8859;-86
2021/01/17 20:06:40;;;;;;;;;15.33;15.00;;;;;;;;5078869;28;9003;-81
2021/01/17 20:09:07;;;;;;;;;19.00;19.00;;;;;;;;5080906;28;8844;-83
2021/01/17 20:11:34;;;;;;;;;18.00;16.33;;;;;;;;5075949;28;9034;-80
2021/01/17 20:14:00;;;;;;;;;15.67;15.67;;;;;;;;5080461;28;8962;-80
2021/01/17 20:16:31;;;;;;;;;18.00;15.67;;;;;;;;5081284;28;8844;-83
2021/01/17 20:18:57;;;;;;;;;19.67;19.00;;;;;;;;5076705;28;8977;-80
2021/01/17 20:21:23;;;;;;;;;18.00;16.67;;;;;;;;5077831;28;8863;-81
2021/01/17 20:23:49;;;;;;;;;18.33;15.33;;;;;;;;5077320;28;8859;-81
2021/01/17 20:26:19;;;;;;;;;18.67;16.67;;;;;;;;5083442;28;8954;-80
2021/01/17 20:28:46;;;;;;;;;21.67;15.00;;;;;;;;5081426;28;8978;-79
2021/01/17 20:31:14;;;;;;;;;14.67;14.67;;;;;;;;5078945;28;9688;-79
2021/01/17 20:33:40;;;;;;;;;15.33;15.00;;;;;;;;5080919;28;8955;-78
2021/01/17 20:36:06;;;;;;;;;18.33;17.33;;;;;;;;5083746;28;8874;-80
2021/01/17 20:38:32;;;;;;;;;16.67;15.33;;;;;;;;5081311;28;8870;-79
2021/01/17 20:40:58;;;;;;;;;16.00;15.00;;;;;;;;5081680;28;8855;-79
2021/01/17 20:43:26;;;;;;;;;16.67;15.00;;;;;;;;5082014;28;8860;-72
2021/01/17 20:45:53;;;;;;;;;19.67;19.00;;;;;;;;5081736;28;8960;-73
2021/01/17 20:48:19;;;;;;;;;19.00;16.00;;;;;;;;5079484;28;8836;-72
2021/01/17 20:50:45;;;;;;;;;18.33;16.00;;;;;;;;5081325;28;8980;-69
2021/01/17 20:53:11;;;;;;;;;19.33;18.00;;;;;;;;5072725;28;8866;-72
2021/01/17 20:55:37;;;;;;;;;17.67;14.67;;;;;;;;5075989;28;8940;-71
2021/01/17 20:58:03;;;;;;;;;21.00;15.00;;;;;;;;5073345;28;8858;-74
2021/01/17 21:00:29;;;;;;;;;19.33;14.00;;;;;;;;5073587;28;8858;-74
2021/01/17 21:02:55;;;;;;;;;15.00;14.67;;;;;;;;5076044;28;8844;-72
2021/01/17 21:05:21;;;;;;;;;15.00;12.00;;;;;;;;5079704;28;9009;-72
2021/01/17 21:07:50;;;;;;;;;15.33;15.33;;;;;;;;5081013;28;8836;-74
2021/01/17 21:10:17;;;;;;;;;16.67;13.33;;;;;;;;5077906;28;8855;-74
2021/01/17 21:12:43;;;;;;;;;17.00;15.00;;;;;;;;5078791;28;8941;-74
2021/01/17 21:15:09;;;;;;;;;15.67;13.33;;;;;;;;5080955;28;8970;-75
2021/01/17 21:17:35;;;;;;;;;16.00;16.00;;;;;;;;5081735;28;9608;-73
2021/01/17 21:20:03;;;;;;;;;14.33;14.33;;;;;;;;5083428;28;9005;-74
2021/01/17 21:22:31;;;;;;;;;18.67;14.00;;;;;;;;5078249;28;8993;-73
2021/01/17 21:24:56;;;;;;;;;19.00;17.33;;;;;;;;5082745;28;8839;-73
2021/01/17 21:27:22;;;;;;;;;14.00;12.33;;;;;;;;5082640;28;9564;-73
2021/01/17 21:29:48;;;;;;;;;19.00;14.00;;;;;;;;5083579;28;8860;-74
2021/01/17 21:32:14;;;;;;;;;20.33;18.33;;;;;;;;5082076;28;8970;-73
2021/01/17 21:34:40;;;;;;;;;19.00;15.00;;;;;;;;5084355;28;8951;-72
2021/01/17 21:37:07;;;;;;;;;20.33;15.33;;;;;;;;5085657;28;9065;-73
2021/01/17 21:39:33;;;;;;;;;17.00;15.67;;;;;;;;5081363;28;8856;-74
2021/01/17 21:42:00;;;;;;;;;22.33;16.67;;;;;;;;5084971;28;8852;-74
2021/01/17 21:44:26;;;;;;;;;21.00;19.00;;;;;;;;5084364;28;8832;-73
2021/01/17 21:46:52;;;;;;;;;19.00;18.00;;;;;;;;5082258;28;8832;-74
2021/01/17 21:49:18;;;;;;;;;20.33;13.67;;;;;;;;5083370;28;8868;-73
2021/01/17 21:51:44;;;;;;;;;14.33;13.33;;;;;;;;5082108;28;8853;-72
2021/01/17 21:54:10;;;;;;;;;19.00;16.00;;;;;;;;5080784;28;8875;-74
2021/01/17 21:56:36;;;;;;;;;15.67;15.67;;;;;;;;5085181;28;8956;-73
2021/01/17 21:59:02;;;;;;;;;21.00;15.67;;;;;;;;5076279;28;9602;-73
2021/01/17 22:01:36;;;;;;;;;14.00;14.00;;;;;;;;5081200;28;8868;-69